createdAt,value
2023-06-16T00:00:52.588Z,98262.37
2023-06-16T00:06:21.325Z,98261.30
2023-06-16T00:11:29.206Z,98265.65
2023-06-16T00:16:37.856Z,98256.50
2023-06-16T00:21:47.423Z,98253.52
2023-06-16T00:26:54.862Z,98251.52
2023-06-16T00:32:02.396Z,98252.59
2023-06-16T00:37:09.683Z,98248.59
2023-06-16T00:42:16.869Z,98241.87
2023-06-16T00:47:24.354Z,98235.68
2023-06-16T00:52:34.254Z,98229.58
2023-06-16T00:57:42.071Z,98225.92
2023-06-16T01:02:49.553Z,98220.55
2023-06-16T01:08:01.022Z,98220.55
2023-06-16T01:13:10.569Z,98218.41
2023-06-16T01:18:24.659Z,98222.46
2023-06-16T01:23:39.319Z,98217.30
2023-06-16T01:28:47.260Z,98217.23
2023-06-16T01:33:55.128Z,98219.89
2023-06-16T01:39:02.840Z,98217.45
2023-06-16T01:44:10.444Z,98210.88
2023-06-16T01:49:17.909Z,98207.23
2023-06-16T01:54:25.125Z,98211.03
2023-06-16T01:59:32.435Z,98212.79
2023-06-16T02:04:43.527Z,98212.56
2023-06-16T02:09:51.463Z,98211.14
2023-06-16T02:14:59.005Z,98207.73
2023-06-16T02:20:08.553Z,98202.98
2023-06-16T02:25:15.993Z,98201.80
2023-06-16T02:30:23.592Z,98209.35
2023-06-16T02:35:30.913Z,98211.58
2023-06-16T02:40:38.625Z,98208.24
2023-06-16T02:45:45.906Z,98208.09
2023-06-16T02:50:53.433Z,98212.42
2023-06-16T02:56:01.022Z,98218.29
2023-06-16T03:01:08.416Z,98217.52
2023-06-16T03:06:15.727Z,98221.96
2023-06-16T03:11:23.114Z,98219.59
2023-06-16T03:16:30.388Z,98224.27
2023-06-16T03:21:38.814Z,98224.77
2023-06-16T03:26:46.394Z,98218.89
2023-06-16T03:31:53.684Z,98218.73
2023-06-16T03:37:01.418Z,98218.83
2023-06-16T03:42:09.145Z,98220.01
2023-06-16T03:47:16.569Z,98220.80
2023-06-16T03:52:24.212Z,98224.70
2023-06-16T03:57:31.452Z,98231.04
2023-06-16T04:02:38.841Z,98229.05
2023-06-16T04:07:46.195Z,98233.31
2023-06-16T04:12:53.704Z,98235.63
2023-06-16T04:18:01.340Z,98237.73
2023-06-16T04:23:11.054Z,98235.20
2023-06-16T04:28:19.163Z,98230.42
2023-06-16T04:33:26.501Z,98225.85
2023-06-16T04:38:34.081Z,98222.12
2023-06-16T04:43:41.253Z,98217.98
2023-06-16T04:48:48.378Z,98214.16
2023-06-16T04:53:56.445Z,98207.87
2023-06-16T04:59:03.599Z,98206.43
2023-06-16T05:04:11.448Z,98204.17
2023-06-16T05:09:18.659Z,98205.42
2023-06-16T05:14:26.389Z,98207.55
2023-06-16T05:19:33.795Z,98209.23
2023-06-16T05:24:41.539Z,98208.27
2023-06-16T05:29:48.879Z,98203.60
2023-06-16T05:34:56.538Z,98202.77
2023-06-16T05:40:03.755Z,98202.04
2023-06-16T05:45:11.652Z,98202.91
2023-06-16T05:50:19.504Z,98204.66
2023-06-16T05:55:28.024Z,98202.39
2023-06-16T06:00:35.370Z,98202.55
2023-06-16T06:05:42.664Z,98201.98
2023-06-16T06:10:49.662Z,98202.39
2023-06-16T06:15:57.033Z,98200.64
2023-06-16T06:21:04.032Z,98202.70
2023-06-16T06:26:10.992Z,98209.36
2023-06-16T06:31:18.463Z,98207.79
2023-06-16T06:36:27.084Z,98209.12
2023-06-16T06:41:34.917Z,98205.71
2023-06-16T06:46:42.319Z,98203.09
2023-06-16T06:51:49.712Z,98205.42
2023-06-16T06:56:57.533Z,98202.41
2023-06-16T07:02:05.080Z,98207.77
2023-06-16T07:07:12.453Z,98209.75
2023-06-16T07:12:20.093Z,98206.35
2023-06-16T07:17:27.686Z,98208.70
2023-06-16T07:22:36.528Z,98211.00
2023-06-16T07:27:45.857Z,98206.88
2023-06-16T07:32:53.186Z,98207.14
2023-06-16T07:38:00.364Z,98210.77
2023-06-16T07:43:08.209Z,98210.34
2023-06-16T07:48:15.638Z,98206.64
2023-06-16T07:53:23.222Z,98211.75
2023-06-16T07:58:31.014Z,98208.86
2023-06-16T08:03:38.299Z,98203.87
2023-06-16T08:08:45.779Z,98201.70
2023-06-16T08:13:53.913Z,98198.77
2023-06-16T08:19:02.029Z,98198.45
2023-06-16T08:24:09.523Z,98197.84
2023-06-16T08:29:17.127Z,98197.61
2023-06-16T08:34:24.534Z,98194.20
2023-06-16T08:39:32.251Z,98194.10
2023-06-16T08:44:41.510Z,98191.10
2023-06-16T08:49:54.018Z,98182.38
2023-06-16T08:55:03.188Z,98179.73
2023-06-16T09:00:12.260Z,98177.04
2023-06-16T09:05:20.051Z,98176.35
2023-06-16T09:10:27.497Z,98172.79
2023-06-16T09:15:37.104Z,98169.36
2023-06-16T09:20:54.941Z,98171.84
2023-06-16T09:26:02.183Z,98166.70
2023-06-16T09:31:13.391Z,98166.05
2023-06-16T09:36:29.695Z,98158.04
2023-06-16T09:41:38.025Z,98156.48
2023-06-16T09:46:46.203Z,98151.39
2023-06-16T09:51:56.824Z,98147.20
2023-06-16T09:57:04.226Z,98144.45
2023-06-16T10:02:12.283Z,98143.20
2023-06-16T10:07:20.484Z,98142.16
2023-06-16T10:12:28.606Z,98146.61
2023-06-16T10:17:35.576Z,98141.54
2023-06-16T10:22:43.126Z,98138.89
2023-06-16T10:27:52.036Z,98133.48
2023-06-16T10:32:59.850Z,98130.56
2023-06-16T10:38:07.176Z,98130.13
2023-06-16T10:43:26.401Z,98131.27
2023-06-16T10:48:53.870Z,98126.17
2023-06-16T10:54:01.046Z,98120.65
2023-06-16T10:59:17.856Z,98116.46
2023-06-16T11:04:24.877Z,98112.60
2023-06-16T11:09:32.284Z,98110.77
2023-06-16T11:14:39.189Z,98106.33
2023-06-16T11:19:46.675Z,98108.71
2023-06-16T11:24:53.775Z,98109.10
2023-06-16T11:30:01.694Z,98103.15
2023-06-16T11:35:09.504Z,98099.31
2023-06-16T11:40:19.048Z,98096.16
2023-06-16T11:45:27.366Z,98096.15
2023-06-16T11:50:35.054Z,98089.64
2023-06-16T11:55:42.236Z,98085.50
2023-06-16T12:00:50.241Z,98076.81
2023-06-16T12:05:58.361Z,98076.65
2023-06-16T12:11:06.864Z,98070.27
2023-06-16T12:16:15.322Z,98071.29
2023-06-16T12:21:23.953Z,98075.84
2023-06-16T12:26:32.329Z,98079.84
2023-06-16T12:31:39.656Z,98081.66
2023-06-16T12:36:48.715Z,98075.46
2023-06-16T12:41:59.399Z,98075.30
2023-06-16T12:47:07.565Z,98067.80
2023-06-16T12:52:15.659Z,98067.86
2023-06-16T12:57:23.798Z,98069.26
2023-06-16T13:02:31.154Z,98067.50
2023-06-16T13:07:38.461Z,98060.41
2023-06-16T13:12:45.614Z,98056.21
2023-06-16T13:17:53.361Z,98052.69
2023-06-16T13:23:00.878Z,98050.09
2023-06-16T13:28:08.449Z,98047.71
2023-06-16T13:33:15.671Z,98050.09
2023-06-16T13:38:23.093Z,98041.10
2023-06-16T13:43:32.193Z,98034.08
2023-06-16T13:48:40.537Z,98035.65
2023-06-16T13:53:47.943Z,98025.23
2023-06-16T13:58:55.276Z,98028.29
2023-06-16T14:04:02.972Z,98021.88
2023-06-16T14:09:10.424Z,98023.61
2023-06-16T14:14:17.850Z,98019.08
2023-06-16T14:19:27.497Z,98012.33
2023-06-16T14:24:37.185Z,98010.23
2023-06-16T14:29:44.866Z,98004.23
2023-06-16T14:34:52.391Z,98005.87
2023-06-16T14:39:59.524Z,98001.06
2023-06-16T14:45:15.867Z,97995.81
2023-06-16T14:50:24.503Z,97990.80
2023-06-16T14:55:31.694Z,97988.48
2023-06-16T15:00:39.315Z,97989.79
2023-06-16T15:05:46.658Z,97984.14
2023-06-16T15:10:53.680Z,97977.61
2023-06-16T15:16:01.793Z,97973.88
2023-06-16T15:21:09.825Z,97973.45
2023-06-16T15:26:17.333Z,97969.55
2023-06-16T15:31:24.680Z,97969.25
2023-06-16T15:36:31.959Z,97965.20
2023-06-16T15:41:39.175Z,97966.44
2023-06-16T15:46:46.807Z,97971.73
2023-06-16T15:51:53.739Z,97973.64
2023-06-16T15:57:01.501Z,97968.13
2023-06-16T16:02:09.779Z,97964.09
2023-06-16T16:07:17.462Z,97959.30
2023-06-16T16:12:24.992Z,97955.55
2023-06-16T16:17:32.436Z,97952.77
2023-06-16T16:22:39.665Z,97958.09
2023-06-16T16:27:46.900Z,97961.89
2023-06-16T16:32:53.861Z,97956.88
2023-06-16T16:38:01.235Z,97958.39
2023-06-16T16:43:09.845Z,97964.02
2023-06-16T16:48:17.884Z,97963.93
2023-06-16T16:53:25.272Z,97961.55
2023-06-16T16:58:32.904Z,97966.89
2023-06-16T17:03:40.252Z,97969.74
2023-06-16T17:08:47.605Z,97971.10
2023-06-16T17:13:54.948Z,97969.95
2023-06-16T17:19:02.139Z,97968.20
2023-06-16T17:24:09.535Z,97964.77
2023-06-16T17:29:16.977Z,97967.34
2023-06-16T17:34:24.718Z,97956.91
2023-06-16T17:39:32.826Z,97957.13
2023-06-16T17:44:40.104Z,97959.76
2023-06-16T17:49:47.096Z,97960.78
2023-06-16T17:54:54.064Z,97956.42
2023-06-16T18:00:01.416Z,97962.05
2023-06-16T18:05:09.294Z,97959.89
2023-06-16T18:10:16.435Z,97959.58
2023-06-16T18:15:23.905Z,97954.98
2023-06-16T18:20:31.488Z,97955.29
2023-06-16T18:25:39.014Z,97951.48
2023-06-16T18:30:46.446Z,97952.66
2023-06-16T18:35:53.437Z,97957.02
2023-06-16T18:41:00.869Z,97956.45
2023-06-16T18:46:08.424Z,97948.05
2023-06-16T18:51:15.740Z,97955.69
2023-06-16T18:56:22.971Z,97956.24
2023-06-16T19:01:31.079Z,97962.14
2023-06-16T19:06:39.391Z,97963.95
2023-06-16T19:11:46.837Z,97973.71
2023-06-16T19:16:53.893Z,97979.12
2023-06-16T19:22:01.062Z,97990.11
2023-06-16T19:27:08.824Z,97994.05
2023-06-16T19:32:16.233Z,98003.72
2023-06-16T19:37:23.783Z,98005.14
2023-06-16T19:42:31.319Z,98011.02
2023-06-16T19:47:39.177Z,98013.95
2023-06-16T19:52:46.349Z,98022.91
2023-06-16T19:57:53.621Z,98023.29
2023-06-16T20:03:00.734Z,98024.52
2023-06-16T20:08:08.338Z,98026.73
2023-06-16T20:13:15.530Z,98025.44
2023-06-16T20:18:22.796Z,98027.84
2023-06-16T20:23:30.834Z,98034.89
2023-06-16T20:28:38.264Z,98034.73
2023-06-16T20:33:45.400Z,98035.20
2023-06-16T20:38:53.117Z,98033.78
2023-06-16T20:44:00.636Z,98037.43
2023-06-16T20:49:10.308Z,98027.42
2023-06-16T20:54:17.413Z,98019.42
2023-06-16T20:59:24.729Z,98017.09
2023-06-16T21:04:32.208Z,98017.01
2023-06-16T21:09:41.829Z,98015.34
2023-06-16T21:14:49.430Z,98014.35
2023-06-16T21:19:57.152Z,98029.89
2023-06-16T21:25:05.448Z,98037.19
2023-06-16T21:30:13.332Z,98033.85
2023-06-16T21:35:21.377Z,98033.27
2023-06-16T21:40:28.673Z,98029.22
2023-06-16T21:45:36.460Z,98030.02
2023-06-16T21:50:43.896Z,98027.23
2023-06-16T21:55:51.349Z,98023.04
2023-06-16T22:00:59.488Z,98017.94
2023-06-16T22:06:06.804Z,98011.27
2023-06-16T22:11:14.240Z,98009.59
2023-06-16T22:16:22.032Z,98003.54
2023-06-16T22:21:29.262Z,98004.19
2023-06-16T22:26:36.900Z,98006.88
2023-06-16T22:31:44.894Z,98002.42
2023-06-16T22:36:55.419Z,98008.29
2023-06-16T22:42:02.760Z,98005.05
2023-06-16T22:47:10.375Z,98010.46
2023-06-16T22:52:17.846Z,98002.76
2023-06-16T22:57:25.145Z,98003.25
2023-06-16T23:02:32.489Z,97999.82
2023-06-16T23:07:39.973Z,97998.61
2023-06-16T23:12:47.368Z,97995.46
2023-06-16T23:17:54.820Z,97989.34
2023-06-16T23:23:04.566Z,97980.96
2023-06-16T23:28:11.971Z,97978.34
2023-06-16T23:33:21.912Z,97984.55
2023-06-16T23:38:29.279Z,97987.08
2023-06-16T23:43:36.397Z,97984.42
2023-06-16T23:48:43.558Z,97984.08
2023-06-16T23:53:50.932Z,97981.95
2023-06-16T23:58:58.419Z,97989.40
